Time;durP1;ratioP1;P1;durP2;ratioP2;P2;SDS_P1;SDS_P2;PMS_P1;PMS_P2;Temp;Humidity;BMP_temperature;BMP_pressure;BME280_temperature;BME280_humidity;BME280_pressure;Samples;Min_cycle;Max_cycle;Signal;HPM_P1;HPM_P2
2021/05/31 00:00:06;;;;;;;10.80;4.40;;;14.80;93.70;;;;;;5033494;28;20018;-75
2021/05/31 00:02:32;;;;;;;7.68;3.80;;;14.80;93.60;;;;;;5033744;28;20528;-76
2021/05/31 00:04:58;;;;;;;5.75;3.20;;;14.80;93.70;;;;;;5015493;28;20032;-75
2021/05/31 00:07:23;;;;;;;6.68;4.15;;;14.80;93.60;;;;;;5032697;28;20587;-75
2021/05/31 00:09:55;;;;;;;3.85;3.25;;;14.80;93.70;;;;;;5032678;28;20103;-76
2021/05/31 00:12:22;;;;;;;3.53;3.23;;;14.80;93.80;;;;;;5033502;28;20485;-76
2021/05/31 00:14:48;;;;;;;8.48;3.95;;;14.80;93.90;;;;;;5032460;28;20018;-76
2021/05/31 00:17:13;;;;;;;4.43;3.47;;;14.80;93.80;;;;;;5032422;28;20035;-74
2021/05/31 00:19:41;;;;;;;6.35;3.60;;;14.80;93.80;;;;;;5032563;28;20111;-75
2021/05/31 00:22:07;;;;;;;7.10;3.15;;;14.80;93.70;;;;;;5012207;28;20057;-75
2021/05/31 00:24:33;;;;;;;5.95;3.95;;;14.80;93.70;;;;;;5033220;28;20504;-75
2021/05/31 00:26:59;;;;;;;3.65;3.28;;;14.80;93.50;;;;;;5032952;28;20029;-75
2021/05/31 00:29:25;;;;;;;4.70;3.65;;;14.80;93.50;;;;;;5031953;28;20058;-75
2021/05/31 00:31:53;;;;;;;10.98;3.50;;;14.80;93.50;;;;;;5030782;28;20052;-74
2021/05/31 00:34:19;;;;;;;5.13;3.30;;;14.80;93.40;;;;;;5032760;28;20026;-75
2021/05/31 00:36:45;;;;;;;5.55;3.63;;;14.80;93.40;;;;;;5032982;28;20033;-74
2021/05/31 00:39:10;;;;;;;3.65;3.35;;;14.80;93.50;;;;;;5032288;28;20026;-75
2021/05/31 00:41:37;;;;;;;5.07;3.55;;;14.80;93.60;;;;;;5032959;28;20025;-74
2021/05/31 00:44:03;;;;;;;3.33;3.03;;;14.70;93.60;;;;;;5032469;28;20053;-75
2021/05/31 00:46:29;;;;;;;4.30;3.47;;;14.70;93.80;;;;;;5032807;28;20025;-74
2021/05/31 00:48:54;;;;;;;8.77;3.28;;;14.80;93.50;;;;;;5032075;28;20045;-75
2021/05/31 00:51:21;;;;;;;3.92;3.10;;;14.80;93.80;;;;;;5032276;28;20069;-75
2021/05/31 00:53:46;;;;;;;5.30;3.22;;;14.80;93.90;;;;;;5014561;28;20091;-75
2021/05/31 00:56:13;;;;;;;4.18;3.40;;;14.80;93.70;;;;;;5035723;28;20465;-74
2021/05/31 00:58:38;;;;;;;3.60;3.30;;;14.80;93.60;;;;;;5020911;28;20508;-74
2021/05/31 01:01:06;;;;;;;6.03;3.92;;;14.80;93.60;;;;;;5031517;28;20067;-74
2021/05/31 01:03:33;;;;;;;7.93;3.25;;;14.80;93.60;;;;;;5032358;28;20107;-74
2021/05/31 01:06:02;;;;;;;3.95;3.20;;;14.80;93.40;;;;;;5030625;28;20493;-74
2021/05/31 01:08:44;;;;;;;5.45;3.25;;;14.80;93.50;;;;;;5013132;28;20524;-74
2021/05/31 01:11:31;;;;;;;7.57;3.38;;;14.80;93.40;;;;;;5030239;28;20393;-75
2021/05/31 01:14:13;;;;;;;8.48;3.30;;;14.80;93.30;;;;;;5030206;28;20074;-75
2021/05/31 01:16:44;;;;;;;;;;;14.80;93.10;;;;;;5030739;28;20030;-74
2021/05/31 01:19:35;;;;;;;4.20;3.43;;;14.80;93.30;;;;;;5028124;28;19915;-74
2021/05/31 01:22:09;;;;;;;4.50;3.03;;;14.80;93.30;;;;;;5031475;28;20029;-75
2021/05/31 01:24:40;;;;;;;3.67;3.28;;;14.80;93.30;;;;;;5031855;28;20410;-75
2021/05/31 01:27:26;;;;;;;5.85;3.70;;;14.80;93.30;;;;;;5032205;28;20021;-74
2021/05/31 01:30:03;;;;;;;6.18;3.42;;;14.70;93.40;;;;;;4981490;28;20054;-75
2021/05/31 01:32:45;;;;;;;6.53;3.67;;;14.70;93.50;;;;;;5017983;28;20096;-75
2021/05/31 01:35:17;;;;;;;;;;;14.70;93.50;;;;;;5026821;28;20737;-75
2021/05/31 01:37:44;;;;;;;5.13;3.75;;;14.70;93.40;;;;;;5017660;28;19905;-73
2021/05/31 01:40:11;;;;;;;5.03;3.28;;;14.60;93.40;;;;;;5030597;28;20033;-74
2021/05/31 01:42:38;;;;;;;6.47;3.25;;;14.60;93.60;;;;;;5031722;28;20033;-74
2021/05/31 01:45:05;;;;;;;4.60;3.05;;;14.50;93.70;;;;;;5013070;28;20021;-75
2021/05/31 01:47:34;;;;;;;6.28;3.78;;;14.50;93.80;;;;;;5031912;28;20034;-75
2021/05/31 01:50:01;;;;;;;5.13;3.55;;;14.50;93.90;;;;;;5013721;28;20046;-75
2021/05/31 01:52:27;;;;;;;7.30;3.72;;;14.40;93.90;;;;;;5031012;28;20097;-75
2021/05/31 01:54:56;;;;;;;4.07;2.95;;;14.40;93.80;;;;;;5030935;28;20070;-75
2021/05/31 01:57:22;;;;;;;5.30;3.42;;;14.40;93.60;;;;;;5031040;28;20022;-73
2021/05/31 01:59:49;;;;;;;4.90;3.50;;;14.40;93.50;;;;;;5031251;28;20017;-73
2021/05/31 02:02:16;;;;;;;5.47;3.97;;;14.40;93.60;;;;;;5031398;28;20180;-74
2021/05/31 02:04:42;;;;;;;3.70;3.17;;;14.40;93.80;;;;;;5031531;28;20490;-74
2021/05/31 02:07:08;;;;;;;3.97;3.40;;;14.30;93.70;;;;;;5030880;28;20060;-75
2021/05/31 02:09:34;;;;;;;4.68;3.75;;;14.40;93.80;;;;;;5031525;28;20099;-74
2021/05/31 02:12:03;;;;;;;4.80;3.70;;;14.30;93.90;;;;;;5031541;28;20029;-73
2021/05/31 02:15:02;;;;;;;4.63;3.70;;;14.20;93.90;;;;;;5031508;28;20401;-73
2021/05/31 02:18:02;;;;;;;6.90;2.70;;;14.20;94.00;;;;;;5031655;28;20021;-75
2021/05/31 02:20:30;;;;;;;7.28;3.83;;;14.20;94.30;;;;;;5026598;28;20072;-75
2021/05/31 02:22:58;;;;;;;11.18;3.80;;;14.20;93.90;;;;;;5031452;28;20074;-75
2021/05/31 02:25:26;;;;;;;11.23;3.38;;;14.20;94.00;;;;;;5031279;28;20017;-75
2021/05/31 02:27:53;;;;;;;5.60;3.35;;;14.20;93.90;;;;;;5031179;28;20022;-76
2021/05/31 02:30:20;;;;;;;6.30;3.70;;;14.20;93.50;;;;;;5031451;28;20112;-74
2021/05/31 02:33:05;;;;;;;3.88;3.22;;;14.20;93.70;;;;;;5031145;28;20032;-74
2021/05/31 02:35:34;;;;;;;5.78;3.72;;;14.20;93.70;;;;;;5031629;28;20049;-75
2021/05/31 02:38:03;;;;;;;6.25;3.58;;;14.20;93.60;;;;;;5031349;28;20033;-74
2021/05/31 02:40:29;;;;;;;6.47;3.78;;;14.20;93.70;;;;;;5030756;28;20048;-75
2021/05/31 02:42:58;;;;;;;3.92;3.50;;;14.20;93.80;;;;;;5031562;28;20113;-74
2021/05/31 02:45:25;;;;;;;3.88;3.45;;;14.10;93.70;;;;;;5031428;28;20041;-74
2021/05/31 02:47:53;;;;;;;3.95;3.50;;;14.10;93.60;;;;;;5031108;28;20024;-74
2021/05/31 02:50:19;;;;;;;4.13;3.70;;;14.10;93.60;;;;;;5031304;28;20112;-75
2021/05/31 02:52:45;;;;;;;6.10;3.45;;;14.10;93.60;;;;;;5031548;28;20578;-75
2021/05/31 02:55:12;;;;;;;4.35;3.75;;;14.10;93.60;;;;;;5031157;28;20104;-74
2021/05/31 02:57:38;;;;;;;10.00;3.20;;;14.10;93.60;;;;;;5035271;28;20025;-74
2021/05/31 03:00:10;;;;;;;7.05;3.13;;;14.10;93.60;;;;;;5034746;28;20029;-73
2021/05/31 03:02:36;;;;;;;4.15;3.20;;;14.10;93.50;;;;;;5034700;28;20040;-76
2021/05/31 03:05:03;;;;;;;5.63;3.65;;;14.10;93.50;;;;;;5034199;28;20030;-74
2021/05/31 03:07:29;;;;;;;6.22;3.30;;;14.10;93.50;;;;;;5034340;28;20053;-74
2021/05/31 03:09:54;;;;;;;6.00;3.92;;;14.10;93.50;;;;;;5034203;28;20057;-75
2021/05/31 03:12:21;;;;;;;4.75;3.53;;;14.00;93.60;;;;;;5034370;28;20030;-74
2021/05/31 03:14:47;;;;;;;5.88;3.47;;;14.00;93.80;;;;;;5034749;28;20032;-74
2021/05/31 03:17:14;;;;;;;4.03;3.42;;;14.00;93.80;;;;;;5034499;28;20110;-74
2021/05/31 03:19:40;;;;;;;5.72;3.53;;;14.00;93.70;;;;;;5034133;28;20108;-74
2021/05/31 03:22:06;;;;;;;5.45;3.47;;;13.90;93.70;;;;;;5034215;28;20105;-74
2021/05/31 03:24:31;;;;;;;7.28;3.65;;;14.00;93.70;;;;;;5034130;28;20097;-75
2021/05/31 03:26:57;;;;;;;5.68;3.30;;;13.90;93.60;;;;;;5034027;28;20041;-75
2021/05/31 03:29:23;;;;;;;4.43;3.13;;;14.10;93.50;;;;;;5034275;28;20541;-74
2021/05/31 03:31:48;;;;;;;5.00;3.38;;;14.10;93.50;;;;;;5034420;28;20146;-74
2021/05/31 03:34:14;;;;;;;6.32;3.33;;;14.10;93.50;;;;;;5034526;28;20053;-75
2021/05/31 03:36:40;;;;;;;3.83;3.22;;;14.10;93.50;;;;;;5033949;28;20108;-74
2021/05/31 03:39:07;;;;;;;7.75;3.80;;;14.10;93.30;;;;;;5033869;28;20017;-74
2021/05/31 03:41:33;;;;;;;11.43;3.55;;;14.10;93.50;;;;;;5016565;28;20067;-74
2021/05/31 03:43:59;;;;;;;4.05;2.97;;;14.10;93.20;;;;;;5033735;28;20429;-75
2021/05/31 03:46:24;;;;;;;4.93;3.38;;;14.10;93.10;;;;;;5015291;28;20024;-75
2021/05/31 03:48:52;;;;;;;6.15;3.20;;;14.20;93.20;;;;;;5033447;28;20108;-74
2021/05/31 03:51:18;;;;;;;3.40;3.10;;;14.30;93.30;;;;;;5033959;28;20033;-74
2021/05/31 03:53:44;;;;;;;5.70;3.50;;;14.30;93.30;;;;;;5033811;28;20104;-75
2021/05/31 03:56:10;;;;;;;5.22;3.28;;;14.30;93.10;;;;;;5034090;28;20560;-74
2021/05/31 03:58:38;;;;;;;5.60;3.58;;;14.40;93.00;;;;;;5033684;28;20029;-74
2021/05/31 04:01:04;;;;;;;7.15;3.40;;;14.50;92.90;;;;;;5032645;28;20029;-73
2021/05/31 04:03:30;;;;;;;4.68;3.60;;;14.50;92.90;;;;;;5033568;28;20105;-74
2021/05/31 04:13:54;;;;;;;5.38;3.30;;;14.90;92.40;;;;;;5033039;28;20048;-74
2021/05/31 04:16:19;;;;;;;6.70;3.90;;;15.00;92.60;;;;;;5033306;28;20433;-74
2021/05/31 04:18:45;;;;;;;4.05;2.90;;;15.20;92.60;;;;;;5032757;28;20036;-74
2021/05/31 04:21:11;;;;;;;16.13;3.45;;;15.80;92.10;;;;;;5014674;28;20489;-74
2021/05/31 04:23:36;;;;;;;5.75;3.63;;;16.30;91.40;;;;;;5033174;28;20087;-76
2021/05/31 04:26:02;;;;;;;5.65;3.10;;;17.00;90.60;;;;;;5032408;28;20070;-75
2021/05/31 04:28:28;;;;;;;3.40;2.60;;;18.90;88.20;;;;;;5032447;28;20100;-75
2021/05/31 04:30:54;;;;;;;3.95;3.03;;;21.20;83.30;;;;;;5032460;28;20033;-74
2021/05/31 04:33:20;;;;;;;7.50;3.45;;;23.10;78.50;;;;;;5015229;28;20112;-74
2021/05/31 04:35:45;;;;;;;3.25;2.83;;;24.50;75.70;;;;;;5033380;28;20026;-74
2021/05/31 04:38:11;;;;;;;3.72;3.17;;;25.30;73.90;;;;;;5032722;28;20022;-74
2021/05/31 04:40:37;;;;;;;5.65;3.00;;;26.00;72.20;;;;;;5031263;28;20029;-73
2021/05/31 04:43:03;;;;;;;6.68;2.92;;;27.10;70.90;;;;;;5031196;28;20512;-75
2021/05/31 04:45:28;;;;;;;2.88;2.47;;;27.50;69.40;;;;;;5032453;28;20025;-75
2021/05/31 04:47:54;;;;;;;4.80;2.40;;;28.50;67.80;;;;;;5031704;28;20033;-75
2021/05/31 04:50:20;;;;;;;5.28;2.50;;;29.10;66.80;;;;;;5031381;28;20564;-76
2021/05/31 04:52:45;;;;;;;3.50;2.45;;;29.70;65.30;;;;;;5032573;28;20026;-76
2021/05/31 04:55:16;;;;;;;2.88;2.58;;;29.40;64.40;;;;;;5032026;28;20663;-75
2021/05/31 04:57:44;;;;;;;4.05;2.50;;;29.90;64.10;;;;;;5032129;28;20017;-75
2021/05/31 05:00:10;;;;;;;4.13;2.40;;;30.80;63.20;;;;;;5032173;28;20030;-75
2021/05/31 05:02:36;;;;;;;2.80;2.38;;;31.30;62.60;;;;;;5031259;28;20072;-75
2021/05/31 05:05:03;;;;;;;2.45;2.25;;;31.50;61.20;;;;;;5032631;28;20025;-77
2021/05/31 05:07:28;;;;;;;4.57;2.00;;;32.00;61.00;;;;;;5014353;28;20720;-76
2021/05/31 05:09:54;;;;;;;3.20;2.10;;;33.10;60.30;;;;;;5032166;28;20030;-76
2021/05/31 05:12:20;;;;;;;2.30;2.10;;;33.40;59.80;;;;;;5032332;28;20030;-74
2021/05/31 05:14:45;;;;;;;3.67;2.10;;;34.30;58.20;;;;;;5032355;28;20028;-75
2021/05/31 05:17:11;;;;;;;2.60;2.05;;;34.90;57.40;;;;;;5032009;28;20033;-75
2021/05/31 05:19:37;;;;;;;5.93;2.15;;;35.50;57.20;;;;;;5031934;28;20029;-76
2021/05/31 05:22:03;;;;;;;4.03;1.90;;;35.20;56.60;;;;;;5031894;28;20108;-78
2021/05/31 05:24:29;;;;;;;2.42;1.90;;;35.60;56.50;;;;;;5031878;28;20025;-79
2021/05/31 05:26:54;;;;;;;6.45;2.13;;;35.60;55.90;;;;;;5024789;28;20021;-78
2021/05/31 05:29:20;;;;;;;2.10;1.90;;;36.00;55.40;;;;;;5030254;28;20056;-77
2021/05/31 05:31:47;;;;;;;5.72;1.83;;;36.50;55.40;;;;;;5031819;28;20041;-76
2021/05/31 05:34:13;;;;;;;2.25;1.70;;;36.50;54.90;;;;;;5030250;28;20037;-76
2021/05/31 05:36:51;;;;;;;2.95;2.00;;;36.60;54.30;;;;;;5031678;28;20022;-77
2021/05/31 05:47:51;;;;;;;1.73;1.63;;;38.50;53.10;;;;;;5031606;28;20453;-75
2021/05/31 05:49:52;;;;;;;2.67;1.92;;;38.30;53.00;;;;;;5016977;28;20111;-75
2021/05/31 05:52:17;;;;;;;2.03;1.40;;;38.80;52.50;;;;;;5031385;28;20041;-76
2021/05/31 05:54:43;;;;;;;4.57;1.50;;;38.90;51.60;;;;;;5031303;28;20457;-80
2021/05/31 05:57:09;;;;;;;1.50;1.40;;;38.90;51.50;;;;;;5030800;28;20496;-75
2021/05/31 05:59:35;;;;;;;1.65;1.50;;;39.20;51.20;;;;;;5031508;28;20469;-77
2021/05/31 06:02:01;;;;;;;2.97;1.52;;;40.10;50.90;;;;;;5031350;28;20024;-78
2021/05/31 06:04:27;;;;;;;5.07;1.77;;;40.40;50.30;;;;;;5013773;28;20124;-76
2021/05/31 06:06:52;;;;;;;7.00;1.60;;;40.30;50.60;;;;;;5030959;28;20088;-79
2021/05/31 06:09:20;;;;;;;7.55;1.67;;;40.30;50.10;;;;;;5030565;28;20034;-77
2021/05/31 06:11:46;;;;;;;5.53;2.10;;;39.70;50.60;;;;;;5031682;28;20474;-78
2021/05/31 06:14:12;;;;;;;6.18;2.08;;;39.20;51.90;;;;;;5030542;28;20044;-77
2021/05/31 06:16:38;;;;;;;3.20;2.00;;;39.10;50.80;;;;;;5026898;28;20028;-77
2021/05/31 06:19:04;;;;;;;3.65;1.92;;;39.10;51.10;;;;;;5028590;28;20029;-78
2021/05/31 06:21:30;;;;;;;2.40;1.48;;;39.20;50.80;;;;;;5029980;28;20041;-78
2021/05/31 06:23:57;;;;;;;6.13;1.58;;;39.50;50.00;;;;;;5026242;28;20067;-77
2021/05/31 06:26:22;;;;;;;2.28;1.23;;;40.00;50.10;;;;;;5026116;28;20045;-77
2021/05/31 06:28:48;;;;;;;3.85;1.92;;;40.50;49.50;;;;;;5030296;28;20067;-78
2021/05/31 06:31:14;;;;;;;7.25;1.77;;;40.50;49.40;;;;;;5022248;28;20042;-78
2021/05/31 06:33:40;;;;;;;5.13;1.92;;;40.50;49.00;;;;;;5028924;28;20104;-78
2021/05/31 06:36:09;;;;;;;7.60;1.48;;;40.30;49.10;;;;;;5029960;28;20528;-78
2021/05/31 06:38:36;;;;;;;7.43;1.55;;;40.00;48.70;;;;;;5030841;28;20029;-78
2021/05/31 06:41:03;;;;;;;1.92;1.45;;;39.90;49.30;;;;;;5034748;28;20045;-77
2021/05/31 06:43:29;;;;;;;6.03;1.58;;;40.10;49.00;;;;;;5032430;28;20021;-78
2021/05/31 06:45:55;;;;;;;2.28;1.10;;;39.80;49.00;;;;;;5034961;28;20057;-78
2021/05/31 06:48:21;;;;;;;5.57;1.85;;;38.60;48.50;;;;;;5034757;28;20041;-78
2021/05/31 06:50:47;;;;;;;4.50;1.23;;;37.00;50.00;;;;;;5034722;28;20451;-78
2021/05/31 06:53:13;;;;;;;3.08;1.50;;;34.00;52.00;;;;;;5034627;28;20025;-77
2021/05/31 06:55:39;;;;;;;1.98;1.45;;;32.60;53.20;;;;;;5034640;28;20371;-78
2021/05/31 06:58:05;;;;;;;5.95;1.60;;;31.70;54.00;;;;;;5034645;28;20072;-77
2021/05/31 07:00:31;;;;;;;6.63;2.13;;;30.40;55.50;;;;;;5034600;28;20041;-78
2021/05/31 07:02:57;;;;;;;9.07;2.03;;;28.80;57.30;;;;;;5034164;28;20009;-78
2021/05/31 07:05:23;;;;;;;5.70;2.10;;;27.80;58.30;;;;;;5034012;28;20622;-77
2021/05/31 07:07:51;;;;;;;2.60;1.88;;;26.70;60.10;;;;;;5033887;28;20100;-77
2021/05/31 07:10:18;;;;;;;2.38;1.80;;;26.20;60.40;;;;;;5034295;28;20020;-77
2021/05/31 07:12:45;;;;;;;9.07;1.98;;;25.20;61.80;;;;;;5034172;28;20014;-77
2021/05/31 07:15:13;;;;;;;3.45;1.80;;;24.60;63.20;;;;;;5017330;28;20021;-77
2021/05/31 07:17:39;;;;;;;5.45;2.22;;;24.30;64.40;;;;;;5014028;28;20067;-78
2021/05/31 07:20:08;;;;;;;2.00;1.70;;;24.20;64.20;;;;;;5033906;28;20489;-77
2021/05/31 07:22:34;;;;;;;7.10;1.63;;;24.10;64.20;;;;;;5034125;28;20041;-77
2021/05/31 07:25:00;;;;;;;6.45;2.75;;;23.80;64.80;;;;;;5016572;28;20611;-77
2021/05/31 07:27:25;;;;;;;2.72;2.17;;;23.70;65.60;;;;;;5034189;28;20030;-78
2021/05/31 07:29:51;;;;;;;9.98;2.70;;;23.50;65.00;;;;;;5033560;28;20374;-78
2021/05/31 07:32:17;;;;;;;23.60;2.58;;;23.50;65.70;;;;;;5033773;28;20028;-77
2021/05/31 07:34:43;;;;;;;15.93;2.67;;;23.30;66.20;;;;;;5033572;28;20021;-76
2021/05/31 07:37:09;;;;;;;3.08;1.90;;;23.20;67.20;;;;;;5034053;28;20099;-77
2021/05/31 07:39:36;;;;;;;5.93;2.30;;;23.20;66.90;;;;;;5033597;28;20026;-77
2021/05/31 07:42:03;;;;;;;6.05;2.53;;;23.40;66.80;;;;;;5031977;28;20507;-77
2021/05/31 07:44:29;;;;;;;5.00;2.60;;;23.40;66.50;;;;;;5033905;28;20033;-78
2021/05/31 07:46:55;;;;;;;8.07;2.35;;;23.00;67.30;;;;;;5033829;28;20028;-78
2021/05/31 07:49:20;;;;;;;3.85;2.13;;;22.70;67.50;;;;;;5032998;28;20516;-77
2021/05/31 07:51:47;;;;;;;4.28;2.83;;;22.60;68.20;;;;;;5033537;28;20049;-78
2021/05/31 07:54:15;;;;;;;4.20;2.22;;;22.60;68.10;;;;;;5030426;28;20025;-77
2021/05/31 07:56:41;;;;;;;11.27;2.75;;;22.20;68.60;;;;;;5033239;28;20048;-78
2021/05/31 07:59:07;;;;;;;6.55;2.30;;;22.10;70.10;;;;;;5032836;28;20466;-78
2021/05/31 08:01:34;;;;;;;11.55;2.30;;;22.60;69.50;;;;;;5033227;28;20049;-78
2021/05/31 08:04:02;;;;;;;2.30;2.00;;;23.10;68.60;;;;;;5033625;28;20021;-79
2021/05/31 08:06:28;;;;;;;17.05;3.42;;;23.50;67.20;;;;;;5032763;28;20147;-79
2021/05/31 08:08:53;;;;;;;8.38;2.53;;;23.40;66.30;;;;;;5025641;28;20122;-78
2021/05/31 08:11:19;;;;;;;5.57;2.40;;;23.30;67.30;;;;;;5024582;28;20029;-78
2021/05/31 08:13:45;;;;;;;3.72;1.80;;;23.40;67.90;;;;;;5038689;28;20022;-81
2021/05/31 08:16:12;;;;;;;3.58;1.98;;;23.60;67.70;;;;;;5030321;28;20490;-80
2021/05/31 08:18:37;;;;;;;3.28;1.70;;;23.90;66.60;;;;;;5006813;28;20502;-78
2021/05/31 08:21:03;;;;;;;2.65;1.92;;;24.00;66.30;;;;;;5035107;28;20041;-79
2021/05/31 08:23:29;;;;;;;3.08;1.60;;;24.10;66.20;;;;;;5030312;28;20028;-79
2021/05/31 08:25:55;;;;;;;2.15;1.75;;;24.40;65.30;;;;;;5037999;28;20029;-79
2021/05/31 08:28:21;;;;;;;2.83;2.00;;;24.60;64.40;;;;;;5029239;28;20018;-78
2021/05/31 08:30:47;;;;;;;3.45;1.92;;;24.50;64.00;;;;;;5034534;28;20092;-79
2021/05/31 08:33:12;;;;;;;4.45;1.60;;;24.40;64.40;;;;;;5032027;28;20104;-79
2021/05/31 08:35:40;;;;;;;2.30;1.60;;;24.50;63.60;;;;;;5024517;28;20366;-78
2021/05/31 08:38:06;;;;;;;3.25;1.63;;;24.50;64.80;;;;;;5017522;28;20057;-79
2021/05/31 08:40:32;;;;;;;1.60;1.50;;;24.70;65.20;;;;;;5032138;28;20033;-79
2021/05/31 08:42:58;;;;;;;5.05;2.17;;;24.80;63.60;;;;;;5024682;28;20021;-79
2021/05/31 08:45:28;;;;;;;2.15;1.55;;;24.70;63.10;;;;;;5031571;28;20021;-78
2021/05/31 08:47:54;;;;;;;1.70;1.48;;;24.60;63.70;;;;;;5032346;28;20025;-78
2021/05/31 08:50:32;;;;;;;1.95;1.67;;;24.70;63.50;;;;;;5031206;28;20032;-78
2021/05/31 08:52:58;;;;;;;2.47;1.98;;;24.60;62.20;;;;;;5028041;28;20037;-80
2021/05/31 08:55:26;;;;;;;3.33;1.60;;;24.50;63.00;;;;;;5028771;28;20103;-79
2021/05/31 08:57:52;;;;;;;4.78;1.40;;;24.40;61.30;;;;;;5030918;28;20027;-79
2021/05/31 09:00:32;;;;;;;1.77;1.40;;;24.30;62.00;;;;;;5037343;28;20037;-80
2021/05/31 09:03:04;;;;;;;7.25;2.00;;;24.20;61.70;;;;;;5024502;28;20442;-81
2021/05/31 09:05:38;;;;;;;1.80;1.70;;;24.20;62.40;;;;;;5030008;28;20071;-81
2021/05/31 09:08:07;;;;;;;4.10;1.88;;;24.30;63.60;;;;;;5019450;28;20024;-78
2021/05/31 09:10:46;;;;;;;5.35;1.70;;;24.50;64.00;;;;;;5030789;28;20025;-79
2021/05/31 09:13:29;;;;;;;1.73;1.58;;;24.60;63.50;;;;;;5020271;28;20043;-79
2021/05/31 09:16:05;;;;;;;3.03;1.98;;;24.60;59.90;;;;;;5029297;28;20026;-79
2021/05/31 09:18:31;;;;;;;2.20;1.80;;;24.30;62.20;;;;;;5023822;28;20025;-80
2021/05/31 09:20:57;;;;;;;2.08;1.67;;;24.10;61.70;;;;;;5019694;28;20138;-82
2021/05/31 09:23:23;;;;;;;2.10;1.50;;;23.90;61.90;;;;;;5032139;28;20026;-80
2021/05/31 09:25:49;;;;;;;1.98;1.35;;;23.70;60.50;;;;;;5031643;28;20033;-79
2021/05/31 09:28:14;;;;;;;8.02;1.95;;;23.70;61.70;;;;;;5031303;28;20466;-81
2021/05/31 09:30:45;;;;;;;2.92;1.70;;;23.80;62.50;;;;;;5031713;28;20473;-78
2021/05/31 09:33:12;;;;;;;2.80;1.90;;;23.80;61.90;;;;;;5014035;28;20478;-79
2021/05/31 09:35:41;;;;;;;5.55;1.48;;;24.10;62.70;;;;;;5037846;28;20621;-79
2021/05/31 09:38:07;;;;;;;7.95;2.08;;;24.40;62.90;;;;;;5030496;28;20033;-79
2021/05/31 09:40:33;;;;;;;1.77;1.42;;;24.60;62.60;;;;;;5031444;28;20364;-78
2021/05/31 09:43:02;;;;;;;9.80;2.63;;;24.80;62.80;;;;;;5031907;28;20017;-78
2021/05/31 09:45:29;;;;;;;5.90;2.60;;;25.10;66.50;;;;;;5031198;28;20557;-79
2021/05/31 09:48:02;;;;;;;3.10;2.00;;;25.30;67.50;;;;;;5030303;28;20184;-80
2021/05/31 09:50:30;;;;;;;2.00;1.50;;;25.30;64.60;;;;;;5032349;28;20108;-79
2021/05/31 09:53:10;;;;;;;3.20;2.20;;;25.30;61.60;;;;;;5031332;28;20124;-79
2021/05/31 09:55:42;;;;;;;2.95;2.20;;;25.40;63.10;;;;;;5031063;28;21282;-80
2021/05/31 09:58:12;;;;;;;3.33;2.47;;;25.50;64.30;;;;;;5031643;28;20026;-80
2021/05/31 10:00:40;;;;;;;6.72;2.38;;;25.60;67.10;;;;;;5031186;28;20017;-80
2021/05/31 10:11:03;;;;;;;6.28;2.03;;;25.70;67.50;;;;;;5031247;28;20121;-80
2021/05/31 10:13:29;;;;;;;2.20;2.00;;;25.60;67.60;;;;;;5031226;28;20029;-80
2021/05/31 10:15:57;;;;;;;4.80;2.08;;;25.20;67.40;;;;;;5031177;28;20025;-80
2021/05/31 10:18:25;;;;;;;6.43;2.22;;;25.00;65.60;;;;;;5031242;28;20462;-79
2021/05/31 10:20:51;;;;;;;3.67;2.03;;;25.00;67.00;;;;;;5030921;28;20421;-80
2021/05/31 10:23:17;;;;;;;4.95;2.00;;;25.00;67.40;;;;;;5031031;28;20072;-80
2021/05/31 10:25:50;;;;;;;3.85;2.03;;;25.10;66.40;;;;;;5031061;28;20437;-79
2021/05/31 10:28:20;;;;;;;3.63;1.80;;;25.20;66.50;;;;;;5029332;28;20528;-79
2021/05/31 10:30:52;;;;;;;3.42;2.17;;;25.20;65.90;;;;;;5031008;28;20021;-78
2021/05/31 10:33:21;;;;;;;6.10;2.20;;;25.10;65.60;;;;;;5031052;28;20013;-79
2021/05/31 10:35:48;;;;;;;5.38;1.92;;;25.00;66.10;;;;;;5031180;28;20032;-79
2021/05/31 10:38:22;;;;;;;4.68;1.90;;;24.90;66.70;;;;;;5031052;28;20018;-79
2021/05/31 10:40:50;;;;;;;8.13;2.28;;;24.70;68.10;;;;;;5031400;28;20029;-80
2021/05/31 10:43:19;;;;;;;3.25;2.20;;;24.50;68.50;;;;;;5031010;28;20105;-79
2021/05/31 10:45:45;;;;;;;4.38;2.03;;;24.60;67.80;;;;;;5030823;28;20029;-81
2021/05/31 10:48:15;;;;;;;3.28;2.13;;;24.70;66.50;;;;;;5030332;28;20041;-80
2021/05/31 10:50:49;;;;;;;6.45;2.00;;;24.70;67.30;;;;;;5028565;28;20017;-80
2021/05/31 10:53:18;;;;;;;9.27;2.28;;;24.40;69.30;;;;;;5016842;28;20115;-79
2021/05/31 10:55:52;;;;;;;7.90;2.35;;;24.30;70.80;;;;;;5028778;28;20029;-78
2021/05/31 10:58:21;;;;;;;5.15;2.78;;;24.50;71.30;;;;;;5023526;28;20382;-79
2021/05/31 11:00:55;;;;;;;34.58;4.32;;;24.60;69.40;;;;;;5029931;28;20099;-79
2021/05/31 11:03:21;;;;;;;8.75;2.58;;;24.60;68.50;;;;;;5030283;28;20029;-78
2021/05/31 11:05:50;;;;;;;3.70;2.72;;;24.50;69.10;;;;;;5028229;28;20517;-78
2021/05/31 11:08:30;;;;;;;5.55;2.95;;;24.50;69.50;;;;;;5026734;28;20478;-78
2021/05/31 11:10:59;;;;;;;5.72;3.10;;;24.50;70.30;;;;;;5028662;28;20018;-77
2021/05/31 11:13:25;;;;;;;7.43;3.25;;;24.40;71.90;;;;;;5012787;28;20026;-78
2021/05/31 11:16:09;;;;;;;7.93;2.75;;;24.40;73.00;;;;;;5025151;28;20026;-77
2021/05/31 11:18:46;;;;;;;4.25;3.22;;;24.40;73.80;;;;;;5023265;28;20045;-78
2021/05/31 11:21:25;;;;;;;5.63;2.85;;;24.60;72.00;;;;;;5025326;28;20029;-77
2021/05/31 11:24:00;;;;;;;10.73;2.63;;;24.80;72.10;;;;;;5026667;28;20030;-77
2021/05/31 11:26:28;;;;;;;6.05;3.00;;;24.80;71.50;;;;;;5025396;28;20029;-78
2021/05/31 11:28:55;;;;;;;4.35;2.95;;;24.70;72.80;;;;;;5015746;28;20033;-78
2021/05/31 11:31:24;;;;;;;12.10;3.90;;;24.60;76.30;;;;;;5032250;28;20029;-78
2021/05/31 11:33:55;;;;;;;5.38;2.85;;;24.60;77.00;;;;;;5015738;28;20028;-78
2021/05/31 11:36:36;;;;;;;5.90;2.90;;;24.40;76.30;;;;;;5032535;28;20037;-78
2021/05/31 11:39:14;;;;;;;7.15;3.13;;;24.20;74.70;;;;;;5042732;28;20069;-78
2021/05/31 11:41:47;;;;;;;5.05;2.90;;;24.20;76.70;;;;;;5034328;28;20120;-78
2021/05/31 11:44:29;;;;;;;7.78;2.90;;;24.30;76.20;;;;;;5034514;28;20021;-78
2021/05/31 11:47:00;;;;;;;6.78;3.17;;;24.40;75.50;;;;;;5033666;28;20057;-77
2021/05/31 11:49:28;;;;;;;7.88;2.80;;;24.40;75.10;;;;;;5033348;28;20406;-77
2021/05/31 11:52:06;;;;;;;7.70;2.85;;;24.40;76.20;;;;;;5033849;28;20021;-79
2021/05/31 11:54:34;;;;;;;7.95;3.33;;;24.50;78.50;;;;;;5034411;28;20026;-79
2021/05/31 11:57:01;;;;;;;10.75;3.95;;;24.40;78.10;;;;;;5033802;28;20024;-78
2021/05/31 11:59:34;;;;;;;5.50;3.35;;;24.10;80.30;;;;;;5032486;28;20063;-77
2021/05/31 12:01:59;;;;;;;5.55;2.83;;;23.90;82.10;;;;;;5032726;28;20372;-78
2021/05/31 12:04:26;;;;;;;5.38;3.50;;;23.80;80.50;;;;;;5034721;28;20028;-75
2021/05/31 12:07:01;;;;;;;8.35;3.38;;;23.50;80.00;;;;;;5031447;28;20021;-78
2021/05/31 12:09:27;;;;;;;5.93;3.38;;;23.20;80.00;;;;;;5024940;28;20478;-77
2021/05/31 12:11:54;;;;;;;10.23;3.20;;;23.10;82.10;;;;;;5031800;28;20030;-78
2021/05/31 12:14:21;;;;;;;7.20;3.10;;;23.10;83.20;;;;;;5025128;28;20034;-78
2021/05/31 12:17:13;;;;;;;8.70;3.65;;;23.10;83.90;;;;;;5025745;28;20377;-78
2021/05/31 12:19:41;;;;;;;5.03;3.30;;;23.30;82.70;;;;;;5017039;28;20066;-77
2021/05/31 12:22:07;;;;;;;9.40;2.78;;;23.20;82.50;;;;;;5033086;28;20114;-78
2021/05/31 12:24:35;;;;;;;10.23;4.57;;;22.90;84.00;;;;;;5029354;28;20013;-78
2021/05/31 12:27:03;;;;;;;8.65;3.67;;;22.80;85.10;;;;;;5034123;28;20022;-77
2021/05/31 12:29:43;;;;;;;11.80;4.55;;;22.70;85.70;;;;;;5028864;28;20021;-78
2021/05/31 12:32:14;;;;;;;7.63;3.53;;;22.80;86.60;;;;;;5033602;28;20525;-78
2021/05/31 12:34:40;;;;;;;5.95;3.97;;;22.90;85.90;;;;;;5028912;28;20108;-77
2021/05/31 12:37:10;;;;;;;8.88;4.07;;;22.90;86.90;;;;;;5030485;28;20021;-79
2021/05/31 12:39:41;;;;;;;10.73;3.70;;;22.80;89.10;;;;;;5032521;28;20064;-77
2021/05/31 12:42:07;;;;;;;8.35;3.78;;;22.60;89.20;;;;;;5029458;28;20049;-79
2021/05/31 12:44:32;;;;;;;9.65;3.85;;;22.60;89.30;;;;;;5031049;28;20026;-78
2021/05/31 12:47:10;;;;;;;7.10;3.85;;;22.70;88.10;;;;;;5034703;28;20033;-77
2021/05/31 12:49:52;;;;;;;8.50;3.65;;;22.90;87.50;;;;;;5026899;28;20049;-77
2021/05/31 12:52:29;;;;;;;7.10;4.00;;;23.20;88.20;;;;;;5025304;28;20048;-77
2021/05/31 12:55:07;;;;;;;7.25;3.50;;;23.20;89.30;;;;;;5014120;28;20103;-77
2021/05/31 12:57:44;;;;;;;10.40;4.15;;;23.20;90.00;;;;;;5031592;28;20109;-77
2021/05/31 13:00:16;;;;;;;13.20;3.67;;;23.20;90.50;;;;;;5031320;28;20148;-77
2021/05/31 13:02:47;;;;;;;6.18;3.42;;;23.30;90.60;;;;;;5031573;28;20160;-79
2021/05/31 13:05:15;;;;;;;10.75;4.80;;;23.30;90.60;;;;;;5031932;28;20024;-77
2021/05/31 13:07:48;;;;;;;9.18;3.70;;;23.30;90.40;;;;;;5031957;28;20029;-77
2021/05/31 13:10:19;;;;;;;10.18;3.80;;;23.40;90.10;;;;;;5031552;28;20024;-77
2021/05/31 13:12:55;;;;;;;7.67;3.97;;;23.30;90.30;;;;;;5031247;28;20052;-77
2021/05/31 13:15:50;;;;;;;9.82;4.10;;;23.30;89.80;;;;;;5031166;28;20033;-77